Terminal Aerodrome Forecast
Issued by NWS

Home | Current Version | Previous Version | Text Only | Print | Product List | Glossary On
Versions: 1 2 3 4 5 6 7 8 9 10 11 12 13 14 15 16 17
000
FTUS43 KSGF 060500
TAFJLN
TAF
KJLN 060520Z 0606/0706 18011KT P6SM SCT070 SCT250 WS018/22040KT
     FM061500 20015G22KT P6SM SCT050
     FM070000 20010KT P6SM SCT050 BKN120=

USA.gov is the U.S. government's official web portal to all federal, state and local government web resources and services.